首页
METAR-TAF:

METAR-TAF

机场 :

拉伯克, 得克萨斯州, 美国

纬度: 33-40-03N, 经度: 101-49-17W, 海拔: 1000米

当前天气观测

该预报发布于34分钟前的15:53 UTC
风速12节,风向西转西南
温度 8°C
湿度 76%
气压 1020 hPa
能見度: 16.1公里
少量云层高于1000英尺
少量云层高于25000英尺

METAR: KLBB 121553Z 24012KT 10SM FEW010 FEW250 08/04 A3011 RMK AO2 SLP188 T00830039

时间: 10:27 (16:27 UTC)

预报

该预报发布于1小时和36分钟前的14:51 UTC
预报有效从12日的 15点(UTC)到 13日的 12点(UTC)
风速10节,风向西南
能見度: 10公里
散云层高于1000英尺
从 12日的 1800点(UTC)
风速9节,风向西
能見度: 10公里
天空无云
从 13日的 1000点(UTC)
风速9节,风向西转西北
能見度: 10公里
少量云层高于25000英尺

TAF: KLBB 121451Z 1215/1312 22010KT P6SM SCT010 FM121800 27009KT P6SM SKC FM131000 30009KT P6SM FEW250

超过4000个机场的气象观测和天气预报(METAR&TAF报告)。

可查询的气象台以黄色和红色小点在地图上表示。

将鼠标移到小点上方,可查看气象台名称。

然后点击查看天气观测和预报。

如需切换地图:点击带黑十字的绿色按钮放大地图;点击带横线的绿色按钮缩小地图;或者点击绿色箭头查看邻近地区的地图。


METAR-TAF: